createdAt,value
2017-07-31T00:01:28.473Z,101351.30
2017-07-31T00:03:54.721Z,101356.20
2017-07-31T00:06:20.972Z,101363.73
2017-07-31T00:08:47.254Z,101363.87
2017-07-31T00:11:13.504Z,101363.03
2017-07-31T00:13:39.743Z,101372.50
2017-07-31T00:17:35.422Z,101369.15
2017-07-31T00:20:02.436Z,101367.16
2017-07-31T00:22:28.673Z,101370.69
2017-07-31T00:24:54.923Z,101359.12
2017-07-31T00:27:21.180Z,101360.88
2017-07-31T00:29:47.444Z,101365.52
2017-07-31T00:32:13.717Z,101369.80
2017-07-31T00:34:39.968Z,101368.69
2017-07-31T00:37:06.191Z,101375.89
2017-07-31T00:39:32.456Z,101377.91
2017-07-31T00:41:58.700Z,101376.31
2017-07-31T00:44:24.931Z,101374.56
2017-07-31T00:46:51.175Z,101372.41
2017-07-31T00:49:17.410Z,101371.84
2017-07-31T00:51:43.665Z,101370.30
2017-07-31T00:54:09.928Z,101367.38
2017-07-31T00:56:36.157Z,101364.69
2017-07-31T00:59:02.397Z,101369.39
2017-07-31T01:01:28.662Z,101365.94
2017-07-31T01:03:54.896Z,101364.16
2017-07-31T01:06:21.145Z,101365.04
2017-07-31T01:08:47.410Z,101368.73
2017-07-31T01:11:13.647Z,101369.28
2017-07-31T01:13:39.885Z,101362.94
2017-07-31T01:17:35.522Z,101363.05
2017-07-31T01:20:01.789Z,101362.51
2017-07-31T01:22:28.021Z,101366.31
2017-07-31T01:24:54.271Z,101362.76
2017-07-31T01:27:20.504Z,101367.87
2017-07-31T01:29:46.737Z,101373.69
2017-07-31T01:32:12.975Z,101379.52
2017-07-31T01:34:39.229Z,101389.20
2017-07-31T01:37:05.506Z,101399.83
2017-07-31T01:39:31.784Z,101379.56
2017-07-31T01:41:58.055Z,101387.55
2017-07-31T01:44:24.321Z,101395.16
2017-07-31T01:46:50.608Z,101384.23
2017-07-31T01:49:16.865Z,101378.39
2017-07-31T01:51:43.135Z,101385.66
2017-07-31T01:54:09.453Z,101380.17
2017-07-31T01:56:35.728Z,101388.16
2017-07-31T01:59:01.991Z,101387.71
2017-07-31T02:01:28.271Z,101381.00
2017-07-31T02:03:54.531Z,101378.36
2017-07-31T02:06:20.779Z,101380.42
2017-07-31T02:08:47.045Z,101378.92
2017-07-31T02:11:13.320Z,101377.55
2017-07-31T02:13:39.576Z,101373.86
2017-07-31T02:17:35.656Z,101370.91
2017-07-31T02:20:01.912Z,101364.05
2017-07-31T02:22:28.169Z,101370.83
2017-07-31T02:24:54.444Z,101380.38
2017-07-31T02:27:20.688Z,101381.19
2017-07-31T02:29:46.919Z,101380.03
2017-07-31T02:32:13.175Z,101381.63
2017-07-31T02:34:39.421Z,101377.46
2017-07-31T02:37:05.657Z,101375.95
2017-07-31T02:39:31.907Z,101367.59
2017-07-31T02:41:58.156Z,101362.69
2017-07-31T02:44:24.400Z,101355.61
2017-07-31T02:46:50.651Z,101357.37
2017-07-31T02:49:16.897Z,101345.63
2017-07-31T02:51:43.124Z,101347.30
2017-07-31T02:54:09.404Z,101346.40
2017-07-31T02:56:35.651Z,101349.88
2017-07-31T02:59:01.901Z,101346.70
2017-07-31T03:01:28.159Z,101348.91
2017-07-31T03:03:54.412Z,101353.27
2017-07-31T03:06:20.673Z,101358.91
2017-07-31T03:08:46.949Z,101356.50
2017-07-31T03:11:13.184Z,101354.07
2017-07-31T03:13:39.425Z,101354.45
2017-07-31T03:17:35.360Z,101351.30
2017-07-31T03:20:01.629Z,101357.91
2017-07-31T03:22:27.872Z,101359.84
2017-07-31T03:24:54.170Z,101364.63
2017-07-31T03:27:20.405Z,101378.27
2017-07-31T03:29:46.649Z,101369.19
2017-07-31T03:32:12.924Z,101370.68
2017-07-31T03:34:39.179Z,101367.60
2017-07-31T03:37:05.442Z,101367.44
2017-07-31T03:39:31.703Z,101365.34
2017-07-31T03:41:57.940Z,101369.81
2017-07-31T03:44:24.169Z,101376.23
2017-07-31T03:46:50.444Z,101380.80
2017-07-31T03:49:16.701Z,101380.66
2017-07-31T03:51:42.937Z,101385.73
2017-07-31T03:54:09.200Z,101385.95
2017-07-31T03:56:35.448Z,101383.63
2017-07-31T03:59:01.685Z,101378.34
2017-07-31T04:01:27.937Z,101387.05
2017-07-31T04:03:54.190Z,101391.93
2017-07-31T04:06:20.448Z,101392.92
2017-07-31T04:08:46.719Z,101394.92
2017-07-31T04:11:13.008Z,101397.61
2017-07-31T04:13:39.259Z,101394.47
2017-07-31T04:17:36.277Z,101395.84
2017-07-31T04:20:02.528Z,101396.39
2017-07-31T04:22:28.780Z,101393.75
2017-07-31T04:24:55.041Z,101390.73
2017-07-31T04:27:21.280Z,101396.84
2017-07-31T04:29:47.514Z,101397.45
2017-07-31T04:32:13.797Z,101398.75
2017-07-31T04:34:40.050Z,101401.41
2017-07-31T04:37:06.293Z,101403.94
2017-07-31T04:39:32.551Z,101404.28
2017-07-31T04:41:58.814Z,101403.78
2017-07-31T04:44:25.056Z,101408.40
2017-07-31T04:46:51.318Z,101411.27
2017-07-31T04:49:17.549Z,101415.12
2017-07-31T04:51:43.798Z,101411.70
2017-07-31T04:54:10.061Z,101411.70
2017-07-31T04:56:36.317Z,101413.75
2017-07-31T04:59:02.572Z,101416.98
2017-07-31T05:01:28.852Z,101420.45
2017-07-31T05:03:55.092Z,101419.30
2017-07-31T05:06:21.329Z,101421.84
2017-07-31T05:08:47.594Z,101426.86
2017-07-31T05:11:13.848Z,101434.83
2017-07-31T05:13:40.123Z,101423.20
2017-07-31T05:17:35.769Z,101421.30
2017-07-31T05:20:02.024Z,101422.92
2017-07-31T05:22:28.281Z,101423.46
2017-07-31T05:24:54.558Z,101422.57
2017-07-31T05:27:20.800Z,101418.55
2017-07-31T05:29:47.034Z,101413.39
2017-07-31T05:32:13.286Z,101416.37
2017-07-31T05:34:39.536Z,101413.89
2017-07-31T05:37:05.794Z,101413.48
2017-07-31T05:39:32.051Z,101420.39
2017-07-31T05:41:58.281Z,101423.55
2017-07-31T05:44:24.522Z,101427.56
2017-07-31T05:46:50.794Z,101433.49
2017-07-31T05:49:17.025Z,101444.42
2017-07-31T05:51:43.276Z,101445.70
2017-07-31T05:54:09.532Z,101448.33
2017-07-31T05:56:35.786Z,101446.13
2017-07-31T05:59:02.056Z,101454.17
2017-07-31T06:01:28.340Z,101449.67
2017-07-31T06:03:54.608Z,101457.37
2017-07-31T06:06:20.863Z,101448.84
2017-07-31T06:08:47.124Z,101456.20
2017-07-31T06:11:13.410Z,101452.77
2017-07-31T06:13:39.665Z,101455.52
2017-07-31T06:17:38.255Z,101467.83
2017-07-31T06:20:04.544Z,101459.77
2017-07-31T06:22:30.815Z,101462.75
2017-07-31T06:24:57.130Z,101467.37
2017-07-31T06:27:23.390Z,101473.47
2017-07-31T06:29:49.636Z,101472.38
2017-07-31T06:32:15.940Z,101459.63
2017-07-31T06:34:42.254Z,101455.72
2017-07-31T06:37:08.510Z,101455.66
2017-07-31T06:39:34.773Z,101463.33
2017-07-31T06:42:01.050Z,101464.36
2017-07-31T06:44:27.310Z,101472.61
2017-07-31T06:46:53.559Z,101479.44
2017-07-31T06:49:19.813Z,101476.18
2017-07-31T06:51:46.076Z,101479.73
2017-07-31T06:54:12.360Z,101472.34
2017-07-31T06:56:38.602Z,101472.13
2017-07-31T06:59:04.900Z,101469.15
2017-07-31T07:01:31.180Z,101470.66
2017-07-31T07:03:57.434Z,101472.88
2017-07-31T07:06:23.713Z,101472.30
2017-07-31T07:08:49.993Z,101477.17
2017-07-31T07:11:16.259Z,101476.41
2017-07-31T07:13:42.551Z,101475.91
2017-07-31T07:17:36.117Z,101474.89
2017-07-31T07:20:02.561Z,101477.61
2017-07-31T07:22:28.801Z,101490.67
2017-07-31T07:24:55.081Z,101485.88
2017-07-31T07:27:21.328Z,101498.30
2017-07-31T07:29:47.572Z,101500.32
2017-07-31T07:32:13.850Z,101490.20
2017-07-31T07:34:40.115Z,101487.12
2017-07-31T07:37:06.372Z,101493.52
2017-07-31T07:39:32.645Z,101507.34
2017-07-31T07:41:59.267Z,101506.38
2017-07-31T07:44:25.503Z,101517.62
2017-07-31T07:46:51.775Z,101514.48
2017-07-31T07:49:18.039Z,101517.05
2017-07-31T07:51:44.295Z,101516.83
2017-07-31T07:54:10.584Z,101519.16
2017-07-31T07:56:36.876Z,101518.70
2017-07-31T07:59:03.145Z,101509.97
2017-07-31T08:01:29.429Z,101505.95
2017-07-31T08:03:55.697Z,101511.52
2017-07-31T08:06:21.969Z,101512.73
2017-07-31T08:08:48.247Z,101502.62
2017-07-31T08:11:14.481Z,101508.33
2017-07-31T08:13:40.739Z,101505.52
2017-07-31T08:17:36.421Z,101501.05
2017-07-31T08:20:02.704Z,101505.18
2017-07-31T08:22:29.017Z,101511.24
2017-07-31T08:24:55.273Z,101518.18
2017-07-31T08:27:21.516Z,101511.87
2017-07-31T08:29:47.753Z,101518.34
2017-07-31T08:32:14.111Z,101516.91
2017-07-31T08:34:40.356Z,101516.52
2017-07-31T08:37:06.660Z,101519.95
2017-07-31T08:39:32.909Z,101518.45
2017-07-31T08:41:59.136Z,101521.48
2017-07-31T08:44:25.384Z,101521.47
2017-07-31T08:46:51.655Z,101520.77
2017-07-31T08:49:17.896Z,101529.00
2017-07-31T08:51:44.162Z,101526.07
2017-07-31T08:54:10.465Z,101527.54
2017-07-31T08:56:36.716Z,101518.84
2017-07-31T08:59:03.181Z,101508.75
2017-07-31T09:01:29.480Z,101512.11
2017-07-31T09:03:55.750Z,101508.19
2017-07-31T09:06:22.027Z,101510.03
2017-07-31T09:08:48.287Z,101508.72
2017-07-31T09:11:14.531Z,101506.58
2017-07-31T09:13:40.817Z,101503.47
2017-07-31T09:17:35.650Z,101506.55
2017-07-31T09:20:01.920Z,101505.07
2017-07-31T09:22:28.167Z,101506.37
2017-07-31T09:24:54.444Z,101503.47
2017-07-31T09:27:21.551Z,101500.22
2017-07-31T09:29:47.830Z,101509.36
2017-07-31T09:32:14.128Z,101513.34
2017-07-31T09:34:40.380Z,101514.61
2017-07-31T09:37:06.608Z,101521.79
2017-07-31T09:39:32.892Z,101529.63
2017-07-31T09:41:59.153Z,101532.80
2017-07-31T09:44:25.429Z,101528.28
2017-07-31T09:46:51.693Z,101527.89
2017-07-31T09:49:17.952Z,101536.31
2017-07-31T09:51:44.231Z,101532.06
2017-07-31T09:54:10.485Z,101530.17
2017-07-31T09:56:36.724Z,101553.45
2017-07-31T09:59:03.063Z,101558.03
2017-07-31T10:01:29.323Z,101555.81
2017-07-31T10:03:55.554Z,101558.84
2017-07-31T10:06:21.808Z,101572.44
2017-07-31T10:08:48.065Z,101566.60
2017-07-31T10:11:14.309Z,101564.77
2017-07-31T10:13:40.557Z,101568.70
2017-07-31T10:17:35.848Z,101566.53
2017-07-31T10:20:02.092Z,101563.39
2017-07-31T10:22:28.332Z,101556.02
2017-07-31T10:24:54.587Z,101555.50
2017-07-31T10:27:20.820Z,101554.47
2017-07-31T10:29:47.055Z,101554.34
2017-07-31T10:32:13.295Z,101555.94
2017-07-31T10:34:39.541Z,101564.76
2017-07-31T10:37:05.792Z,101560.74
2017-07-31T10:39:32.040Z,101557.16
2017-07-31T10:41:58.323Z,101559.55
2017-07-31T10:44:24.584Z,101555.03
2017-07-31T10:46:51.224Z,101553.09
2017-07-31T10:49:17.498Z,101545.83
2017-07-31T10:51:43.761Z,101536.64
2017-07-31T10:54:10.019Z,101534.98
2017-07-31T10:56:36.263Z,101540.48
2017-07-31T10:59:02.504Z,101543.52
2017-07-31T11:01:28.812Z,101536.67
2017-07-31T11:03:55.063Z,101538.27
2017-07-31T11:06:21.309Z,101541.77
2017-07-31T11:08:47.852Z,101548.98
2017-07-31T11:11:14.100Z,101546.45
2017-07-31T11:13:40.335Z,101547.20
2017-07-31T11:17:37.060Z,101547.34
2017-07-31T11:20:03.315Z,101548.56
2017-07-31T11:22:29.557Z,101544.52
2017-07-31T11:24:55.808Z,101558.69
2017-07-31T11:27:22.058Z,101546.05
2017-07-31T11:29:48.300Z,101552.70
2017-07-31T11:32:14.560Z,101549.27
2017-07-31T11:34:40.840Z,101543.37
2017-07-31T11:37:07.119Z,101543.43
2017-07-31T11:39:33.413Z,101542.61
2017-07-31T11:41:59.697Z,101538.48
2017-07-31T11:44:25.956Z,101528.86
2017-07-31T11:46:52.212Z,101535.67
2017-07-31T11:49:18.468Z,101542.08
2017-07-31T11:51:44.738Z,101540.13
2017-07-31T11:54:11.007Z,101546.20
2017-07-31T11:56:37.433Z,101547.61
2017-07-31T11:59:03.669Z,101556.05
2017-07-31T12:01:29.952Z,101548.89
2017-07-31T12:03:56.191Z,101553.84
2017-07-31T12:06:22.579Z,101560.94
2017-07-31T12:08:48.889Z,101558.61
2017-07-31T12:11:15.135Z,101553.52
2017-07-31T12:13:41.395Z,101561.89
2017-07-31T12:17:36.932Z,101547.17
2017-07-31T12:20:03.196Z,101548.25
2017-07-31T12:22:29.504Z,101547.58
2017-07-31T12:24:55.818Z,101548.06
2017-07-31T12:27:22.056Z,101548.78
2017-07-31T12:29:48.310Z,101553.92
2017-07-31T12:32:14.633Z,101550.77
2017-07-31T12:34:41.026Z,101555.94
2017-07-31T12:37:07.313Z,101552.86
2017-07-31T12:39:33.584Z,101550.46
2017-07-31T12:41:59.826Z,101549.35
2017-07-31T12:44:26.069Z,101556.55
2017-07-31T12:46:52.336Z,101550.11
2017-07-31T12:49:18.602Z,101553.16
2017-07-31T12:51:44.847Z,101551.74
2017-07-31T12:54:11.112Z,101555.98
2017-07-31T12:56:37.363Z,101556.59
2017-07-31T12:59:03.608Z,101556.41
2017-07-31T13:01:29.875Z,101561.58
2017-07-31T13:03:56.108Z,101563.07
2017-07-31T13:06:22.358Z,101556.73
2017-07-31T13:08:48.621Z,101556.02
2017-07-31T13:11:14.921Z,101544.28
2017-07-31T13:13:41.176Z,101546.03
2017-07-31T13:17:35.306Z,101535.48
2017-07-31T13:20:01.571Z,101536.39
2017-07-31T13:22:27.819Z,101538.52
2017-07-31T13:24:54.091Z,101537.88
2017-07-31T13:27:20.345Z,101533.55
2017-07-31T13:29:46.596Z,101526.11
2017-07-31T13:32:12.880Z,101525.20
2017-07-31T13:34:39.128Z,101516.80
2017-07-31T13:37:05.561Z,101523.16
2017-07-31T13:39:31.837Z,101526.33
2017-07-31T13:41:58.071Z,101518.45
2017-07-31T13:44:24.321Z,101530.89
2017-07-31T13:46:50.611Z,101524.05
2017-07-31T13:49:16.837Z,101520.23
2017-07-31T13:51:43.080Z,101511.52
2017-07-31T13:54:09.333Z,101517.00
2017-07-31T13:56:35.601Z,101522.06
2017-07-31T13:59:01.833Z,101526.22
2017-07-31T14:01:28.140Z,101524.67
2017-07-31T14:03:54.376Z,101532.56
2017-07-31T14:06:20.629Z,101528.02
2017-07-31T14:08:47.052Z,101533.34
2017-07-31T14:11:13.290Z,101532.37
2017-07-31T14:13:39.531Z,101524.93
2017-07-31T14:17:36.444Z,101528.37
2017-07-31T14:20:02.683Z,101534.49
2017-07-31T14:22:28.933Z,101535.44
2017-07-31T14:24:55.195Z,101534.81
2017-07-31T14:27:21.419Z,101520.45
2017-07-31T14:29:47.660Z,101521.67
2017-07-31T14:32:13.910Z,101518.45
2017-07-31T14:34:40.177Z,101503.11
2017-07-31T14:37:06.409Z,101498.56
2017-07-31T14:39:32.681Z,101500.97
2017-07-31T14:41:58.929Z,101503.53
2017-07-31T14:44:25.201Z,101496.67
2017-07-31T14:46:51.451Z,101492.26
2017-07-31T14:49:17.696Z,101493.16
2017-07-31T14:51:43.949Z,101499.75
2017-07-31T14:54:10.213Z,101500.15
2017-07-31T14:56:36.482Z,101503.54
2017-07-31T14:59:02.745Z,101496.83
2017-07-31T15:01:28.999Z,101504.70
2017-07-31T15:03:55.299Z,101505.59
2017-07-31T15:06:21.576Z,101497.25
2017-07-31T15:08:47.837Z,101492.34
2017-07-31T15:11:14.063Z,101495.44
2017-07-31T15:13:40.288Z,101492.55
2017-07-31T15:17:35.864Z,101486.46
2017-07-31T15:20:02.151Z,101489.80
2017-07-31T15:22:28.384Z,101488.82
2017-07-31T15:24:54.637Z,101483.39
2017-07-31T15:27:20.869Z,101483.20
2017-07-31T15:29:47.108Z,101483.12
2017-07-31T15:32:13.372Z,101483.87
2017-07-31T15:34:39.593Z,101486.33
2017-07-31T15:37:05.840Z,101481.91
2017-07-31T15:39:32.089Z,101479.58
2017-07-31T15:41:58.320Z,101476.57
2017-07-31T15:44:24.552Z,101476.68
2017-07-31T15:46:50.808Z,101481.06
2017-07-31T15:49:17.029Z,101473.61
2017-07-31T15:51:43.298Z,101487.02
2017-07-31T15:54:09.584Z,101480.30
2017-07-31T15:56:35.836Z,101482.23
2017-07-31T15:59:02.073Z,101474.35
2017-07-31T16:01:28.328Z,101473.89
2017-07-31T16:03:54.564Z,101479.20
2017-07-31T16:06:20.796Z,101478.33
2017-07-31T16:08:47.052Z,101480.00
2017-07-31T16:11:13.285Z,101475.38
2017-07-31T16:13:39.523Z,101487.34
2017-07-31T16:17:35.788Z,101482.42
2017-07-31T16:20:02.037Z,101488.20
2017-07-31T16:22:28.725Z,101487.48
2017-07-31T16:24:54.989Z,101493.52
2017-07-31T16:27:21.227Z,101489.41
2017-07-31T16:29:47.461Z,101486.49
2017-07-31T16:32:13.736Z,101487.56
2017-07-31T16:34:39.976Z,101477.20
2017-07-31T16:37:25.516Z,101476.77
2017-07-31T16:39:51.780Z,101477.71
2017-07-31T16:42:18.047Z,101471.31
2017-07-31T16:45:02.206Z,101474.44
2017-07-31T16:47:41.808Z,101474.83
2017-07-31T16:50:08.119Z,101482.42
2017-07-31T16:52:34.372Z,101474.05
2017-07-31T16:55:00.639Z,101476.63
2017-07-31T16:57:27.292Z,101479.44
2017-07-31T16:59:53.552Z,101477.34
2017-07-31T17:02:19.806Z,101476.27
2017-07-31T17:04:46.093Z,101475.31
2017-07-31T17:07:12.536Z,101468.63
2017-07-31T17:09:38.780Z,101467.39
2017-07-31T17:12:05.050Z,101473.30
2017-07-31T17:14:31.289Z,101467.56
2017-07-31T17:17:35.441Z,101461.03
2017-07-31T17:20:02.475Z,101460.02
2017-07-31T17:22:28.717Z,101460.08
2017-07-31T17:24:54.999Z,101460.58
2017-07-31T17:27:21.255Z,101467.31
2017-07-31T17:29:49.513Z,101473.70
2017-07-31T17:32:15.846Z,101472.06
2017-07-31T17:34:42.461Z,101461.70
2017-07-31T17:37:08.737Z,101456.28
2017-07-31T17:39:35.009Z,101464.25
2017-07-31T17:42:01.266Z,101468.18
2017-07-31T17:44:27.539Z,101472.82
2017-07-31T17:46:54.548Z,101476.89
2017-07-31T17:49:20.842Z,101477.68
2017-07-31T17:51:47.117Z,101478.31
2017-07-31T17:54:13.473Z,101467.95
2017-07-31T17:56:54.001Z,101478.23
2017-07-31T17:59:20.324Z,101483.42
2017-07-31T18:01:46.596Z,101487.80
2017-07-31T18:04:12.841Z,101490.86
2017-07-31T18:06:39.144Z,101488.72
2017-07-31T18:09:05.418Z,101485.22
2017-07-31T18:11:31.675Z,101477.70
2017-07-31T18:13:57.953Z,101471.82
2017-07-31T18:17:35.350Z,101481.15
2017-07-31T18:20:01.654Z,101480.19
2017-07-31T18:22:27.911Z,101485.13
2017-07-31T18:24:54.161Z,101477.48
2017-07-31T18:27:20.427Z,101472.20
2017-07-31T18:29:46.665Z,101465.66
2017-07-31T18:32:12.916Z,101472.60
2017-07-31T18:34:39.228Z,101472.90
2017-07-31T18:37:05.478Z,101484.09
2017-07-31T18:39:31.734Z,101485.14
2017-07-31T18:41:58.007Z,101489.95
2017-07-31T18:44:24.304Z,101498.95
2017-07-31T18:46:50.568Z,101499.02
2017-07-31T18:49:16.857Z,101494.17
2017-07-31T18:51:43.626Z,101505.47
2017-07-31T18:54:10.268Z,101504.91
2017-07-31T18:56:36.580Z,101506.59
2017-07-31T18:59:02.960Z,101498.36
2017-07-31T19:01:29.238Z,101494.51
2017-07-31T19:03:55.896Z,101491.41
2017-07-31T19:06:22.203Z,101488.13
2017-07-31T19:08:48.453Z,101481.09
2017-07-31T19:11:14.752Z,101474.31
2017-07-31T19:13:41.040Z,101473.66
2017-07-31T19:17:36.025Z,101472.06
2017-07-31T19:20:02.342Z,101481.63
2017-07-31T19:22:28.637Z,101481.92
2017-07-31T19:24:54.884Z,101494.02
2017-07-31T19:27:21.151Z,101501.10
2017-07-31T19:29:47.424Z,101512.13
2017-07-31T19:32:13.738Z,101514.75
2017-07-31T19:34:39.998Z,101513.80
2017-07-31T19:37:06.332Z,101508.58
2017-07-31T19:39:32.640Z,101502.28
2017-07-31T19:41:58.908Z,101506.22
2017-07-31T19:44:25.180Z,101509.34
2017-07-31T19:46:51.453Z,101519.45
2017-07-31T19:49:17.714Z,101552.47
2017-07-31T19:51:43.973Z,101570.39
2017-07-31T19:54:10.298Z,101579.89
2017-07-31T19:56:36.559Z,101579.81
2017-07-31T19:59:02.836Z,101578.59
2017-07-31T20:01:29.101Z,101592.00
2017-07-31T20:03:55.358Z,101589.69
2017-07-31T20:06:21.661Z,101596.34
2017-07-31T20:08:47.919Z,101576.32
2017-07-31T20:11:14.156Z,101569.63
2017-07-31T20:13:40.426Z,101565.37
2017-07-31T20:17:35.952Z,101570.17
2017-07-31T20:20:02.863Z,101573.53
2017-07-31T20:22:29.116Z,101568.34
2017-07-31T20:24:55.397Z,101569.52
2017-07-31T20:27:21.649Z,101569.19
2017-07-31T20:29:47.900Z,101568.69
2017-07-31T20:32:14.175Z,101585.74
2017-07-31T20:34:40.428Z,101592.59
2017-07-31T20:37:06.692Z,101595.64
2017-07-31T20:39:32.976Z,101593.69
2017-07-31T20:41:59.231Z,101586.89
2017-07-31T20:44:25.488Z,101589.23
2017-07-31T20:46:51.763Z,101590.81
2017-07-31T20:49:18.059Z,101592.14
2017-07-31T20:51:44.315Z,101591.10
2017-07-31T20:54:10.585Z,101585.02
2017-07-31T20:56:36.852Z,101592.52
2017-07-31T20:59:03.115Z,101593.84
2017-07-31T21:01:29.407Z,101590.69
2017-07-31T21:03:55.688Z,101595.95
2017-07-31T21:06:21.930Z,101596.13
2017-07-31T21:08:48.209Z,101598.54
2017-07-31T21:11:14.444Z,101603.91
2017-07-31T21:13:40.700Z,101611.52
2017-07-31T21:17:35.591Z,101620.51
2017-07-31T21:20:01.842Z,101617.52
2017-07-31T21:22:28.106Z,101628.28
2017-07-31T21:24:54.381Z,101629.78
2017-07-31T21:27:20.614Z,101627.06
2017-07-31T21:29:46.863Z,101616.01
2017-07-31T21:32:13.126Z,101628.02
2017-07-31T21:34:39.396Z,101624.67
2017-07-31T21:37:05.668Z,101630.30
2017-07-31T21:39:31.933Z,101646.34
2017-07-31T21:41:58.186Z,101636.23
2017-07-31T21:44:24.437Z,101628.56
2017-07-31T21:46:50.725Z,101614.74
2017-07-31T21:49:16.992Z,101621.27
2017-07-31T21:51:43.225Z,101621.06
2017-07-31T21:54:09.495Z,101620.06
2017-07-31T21:56:35.729Z,101619.25
2017-07-31T21:59:01.997Z,101624.67
2017-07-31T22:01:28.284Z,101631.53
2017-07-31T22:03:54.525Z,101629.74
2017-07-31T22:06:20.768Z,101626.33
2017-07-31T22:08:47.042Z,101643.69
2017-07-31T22:11:13.299Z,101659.14
2017-07-31T22:13:39.545Z,101649.77
2017-07-31T22:17:55.190Z,101620.89
2017-07-31T22:20:27.392Z,101601.19
2017-07-31T22:22:53.642Z,101615.14
2017-07-31T22:25:19.900Z,101613.23
2017-07-31T22:27:46.153Z,101615.38
2017-07-31T22:30:12.428Z,101610.71
2017-07-31T22:32:38.686Z,101608.76
2017-07-31T22:35:04.927Z,101587.38
2017-07-31T22:37:31.185Z,101596.73
2017-07-31T22:39:57.430Z,101607.89
2017-07-31T22:42:23.682Z,101603.82
2017-07-31T22:44:49.933Z,101597.57
2017-07-31T22:47:16.204Z,101584.70
2017-07-31T22:49:42.475Z,101577.98
2017-07-31T22:52:08.731Z,101566.41
2017-07-31T22:54:34.980Z,101576.95
2017-07-31T22:57:01.616Z,101576.67
2017-07-31T22:59:27.855Z,101585.67
2017-07-31T23:01:54.129Z,101581.63
2017-07-31T23:04:20.408Z,101567.82
2017-07-31T23:06:46.641Z,101571.47
2017-07-31T23:09:12.913Z,101568.52
2017-07-31T23:11:39.168Z,101577.73
2017-07-31T23:14:05.404Z,101582.97
2017-07-31T23:17:36.894Z,101577.86
2017-07-31T23:20:03.153Z,101582.23
2017-07-31T23:22:29.384Z,101580.99
2017-07-31T23:24:55.646Z,101586.02
2017-07-31T23:27:21.887Z,101595.87
2017-07-31T23:29:48.134Z,101605.34
2017-07-31T23:32:14.404Z,101604.82
2017-07-31T23:34:40.637Z,101600.47
2017-07-31T23:37:06.868Z,101604.67
2017-07-31T23:39:33.112Z,101595.84
2017-07-31T23:41:59.353Z,101586.14
2017-07-31T23:44:25.585Z,101592.42
2017-07-31T23:46:51.846Z,101603.00
2017-07-31T23:49:18.108Z,101600.49
2017-07-31T23:51:44.357Z,101595.08
2017-07-31T23:54:10.613Z,101599.22
2017-07-31T23:56:36.844Z,101593.60
2017-07-31T23:59:03.109Z,101581.98
